sensor_id;sensor_type;location;lat;lon;timestamp;P1;durP1;ratioP1;P2;durP2;ratioP2
47147;SDS011;32900;47.498;8.738;2022-09-06T00:00:12;7.20;;;4.57;;
47147;SDS011;32900;47.498;8.738;2022-09-06T00:02:41;6.57;;;4.30;;
47147;SDS011;32900;47.498;8.738;2022-09-06T00:05:09;5.97;;;3.90;;
47147;SDS011;32900;47.498;8.738;2022-09-06T00:07:36;6.85;;;4.10;;
47147;SDS011;32900;47.498;8.738;2022-09-06T00:10:04;5.45;;;4.10;;
47147;SDS011;32900;47.498;8.738;2022-09-06T00:12:31;9.20;;;4.22;;
47147;SDS011;32900;47.498;8.738;2022-09-06T00:14:58;5.60;;;3.65;;
47147;SDS011;32900;47.498;8.738;2022-09-06T00:17:25;6.47;;;4.20;;
47147;SDS011;32900;47.498;8.738;2022-09-06T00:19:52;6.32;;;3.97;;
47147;SDS011;32900;47.498;8.738;2022-09-06T00:22:18;7.10;;;3.88;;
47147;SDS011;32900;47.498;8.738;2022-09-06T00:24:45;8.63;;;3.72;;
47147;SDS011;32900;47.498;8.738;2022-09-06T00:27:12;6.55;;;3.95;;
47147;SDS011;32900;47.498;8.738;2022-09-06T00:29:39;5.70;;;3.85;;
47147;SDS011;32900;47.498;8.738;2022-09-06T00:32:06;7.75;;;4.45;;
47147;SDS011;32900;47.498;8.738;2022-09-06T00:34:34;6.47;;;3.78;;
47147;SDS011;32900;47.498;8.738;2022-09-06T00:37:00;8.60;;;3.88;;
47147;SDS011;32900;47.498;8.738;2022-09-06T00:39:27;8.73;;;4.40;;
47147;SDS011;32900;47.498;8.738;2022-09-06T00:41:54;7.03;;;4.13;;
47147;SDS011;32900;47.498;8.738;2022-09-06T00:44:21;7.80;;;3.85;;
47147;SDS011;32900;47.498;8.738;2022-09-06T00:46:48;7.93;;;4.00;;
47147;SDS011;32900;47.498;8.738;2022-09-06T00:49:19;7.13;;;4.00;;
47147;SDS011;32900;47.498;8.738;2022-09-06T00:51:53;7.22;;;4.15;;
47147;SDS011;32900;47.498;8.738;2022-09-06T00:54:26;7.38;;;4.15;;
47147;SDS011;32900;47.498;8.738;2022-09-06T00:56:53;6.85;;;3.97;;
47147;SDS011;32900;47.498;8.738;2022-09-06T00:59:26;7.60;;;4.55;;
47147;SDS011;32900;47.498;8.738;2022-09-06T01:01:56;5.63;;;3.65;;
47147;SDS011;32900;47.498;8.738;2022-09-06T01:04:23;8.57;;;3.70;;
47147;SDS011;32900;47.498;8.738;2022-09-06T01:12:13;7.97;;;4.20;;
47147;SDS011;32900;47.498;8.738;2022-09-06T01:15:07;6.68;;;3.65;;
47147;SDS011;32900;47.498;8.738;2022-09-06T01:28:45;6.22;;;3.60;;
47147;SDS011;32900;47.498;8.738;2022-09-06T01:31:23;7.95;;;4.55;;
47147;SDS011;32900;47.498;8.738;2022-09-06T01:36:31;9.60;;;4.38;;
47147;SDS011;32900;47.498;8.738;2022-09-06T01:39:33;7.32;;;4.00;;
47147;SDS011;32900;47.498;8.738;2022-09-06T01:42:09;6.15;;;4.03;;
47147;SDS011;32900;47.498;8.738;2022-09-06T01:44:41;8.90;;;4.30;;
47147;SDS011;32900;47.498;8.738;2022-09-06T01:50:10;11.25;;;4.43;;
47147;SDS011;32900;47.498;8.738;2022-09-06T02:00:34;19.27;;;6.15;;
47147;SDS011;32900;47.498;8.738;2022-09-06T02:08:34;13.27;;;5.30;;
47147;SDS011;32900;47.498;8.738;2022-09-06T02:11:06;12.07;;;4.55;;
47147;SDS011;32900;47.498;8.738;2022-09-06T02:13:35;11.15;;;5.05;;
47147;SDS011;32900;47.498;8.738;2022-09-06T02:16:06;12.77;;;4.97;;
47147;SDS011;32900;47.498;8.738;2022-09-06T02:18:42;7.68;;;4.75;;
47147;SDS011;32900;47.498;8.738;2022-09-06T02:21:35;10.57;;;5.40;;
47147;SDS011;32900;47.498;8.738;2022-09-06T02:58:36;7.00;;;5.07;;
47147;SDS011;32900;47.498;8.738;2022-09-06T03:01:03;7.72;;;5.18;;
47147;SDS011;32900;47.498;8.738;2022-09-06T03:03:30;8.07;;;4.50;;
47147;SDS011;32900;47.498;8.738;2022-09-06T03:05:57;6.75;;;4.55;;
47147;SDS011;32900;47.498;8.738;2022-09-06T03:08:24;9.02;;;5.15;;
47147;SDS011;32900;47.498;8.738;2022-09-06T03:10:52;9.15;;;4.65;;
47147;SDS011;32900;47.498;8.738;2022-09-06T03:13:21;8.68;;;4.97;;
47147;SDS011;32900;47.498;8.738;2022-09-06T03:15:50;10.18;;;4.80;;
47147;SDS011;32900;47.498;8.738;2022-09-06T03:18:18;8.15;;;4.72;;
47147;SDS011;32900;47.498;8.738;2022-09-06T03:20:45;10.13;;;4.95;;
47147;SDS011;32900;47.498;8.738;2022-09-06T03:23:15;8.77;;;5.13;;
47147;SDS011;32900;47.498;8.738;2022-09-06T03:25:43;9.20;;;4.47;;
47147;SDS011;32900;47.498;8.738;2022-09-06T03:28:09;10.18;;;5.40;;
47147;SDS011;32900;47.498;8.738;2022-09-06T03:30:38;9.05;;;5.55;;
47147;SDS011;32900;47.498;8.738;2022-09-06T03:33:05;8.50;;;4.80;;
47147;SDS011;32900;47.498;8.738;2022-09-06T03:35:32;9.38;;;4.95;;
47147;SDS011;32900;47.498;8.738;2022-09-06T03:37:59;8.48;;;4.57;;
47147;SDS011;32900;47.498;8.738;2022-09-06T03:40:25;9.88;;;5.13;;
47147;SDS011;32900;47.498;8.738;2022-09-06T03:42:52;12.02;;;4.60;;
47147;SDS011;32900;47.498;8.738;2022-09-06T03:45:19;6.97;;;4.18;;
47147;SDS011;32900;47.498;8.738;2022-09-06T03:47:46;9.18;;;4.90;;
47147;SDS011;32900;47.498;8.738;2022-09-06T03:50:13;8.30;;;4.30;;
47147;SDS011;32900;47.498;8.738;2022-09-06T03:52:40;6.80;;;4.25;;
47147;SDS011;32900;47.498;8.738;2022-09-06T03:55:06;9.18;;;4.95;;
47147;SDS011;32900;47.498;8.738;2022-09-06T03:57:34;10.23;;;4.25;;
47147;SDS011;32900;47.498;8.738;2022-09-06T04:00:00;8.20;;;4.68;;
47147;SDS011;32900;47.498;8.738;2022-09-06T04:02:27;8.38;;;5.10;;
47147;SDS011;32900;47.498;8.738;2022-09-06T04:04:54;11.30;;;5.32;;
47147;SDS011;32900;47.498;8.738;2022-09-06T04:07:21;11.50;;;5.22;;
47147;SDS011;32900;47.498;8.738;2022-09-06T04:09:48;11.65;;;4.80;;
47147;SDS011;32900;47.498;8.738;2022-09-06T04:12:15;8.40;;;4.38;;
47147;SDS011;32900;47.498;8.738;2022-09-06T04:14:41;8.15;;;4.45;;
47147;SDS011;32900;47.498;8.738;2022-09-06T04:17:08;10.27;;;5.20;;
47147;SDS011;32900;47.498;8.738;2022-09-06T04:19:35;8.80;;;4.28;;
47147;SDS011;32900;47.498;8.738;2022-09-06T04:22:02;11.90;;;5.00;;
47147;SDS011;32900;47.498;8.738;2022-09-06T04:24:29;9.43;;;5.18;;
47147;SDS011;32900;47.498;8.738;2022-09-06T04:26:55;7.82;;;4.57;;
47147;SDS011;32900;47.498;8.738;2022-09-06T04:29:22;10.32;;;5.30;;
47147;SDS011;32900;47.498;8.738;2022-09-06T04:31:49;7.65;;;4.28;;
47147;SDS011;32900;47.498;8.738;2022-09-06T04:34:16;8.23;;;4.55;;
47147;SDS011;32900;47.498;8.738;2022-09-06T04:36:44;11.15;;;5.20;;
47147;SDS011;32900;47.498;8.738;2022-09-06T04:39:13;8.30;;;4.55;;
47147;SDS011;32900;47.498;8.738;2022-09-06T04:41:40;9.27;;;4.80;;
47147;SDS011;32900;47.498;8.738;2022-09-06T04:44:07;9.95;;;4.57;;
47147;SDS011;32900;47.498;8.738;2022-09-06T04:46:34;8.32;;;4.68;;
47147;SDS011;32900;47.498;8.738;2022-09-06T04:49:01;7.18;;;4.43;;
47147;SDS011;32900;47.498;8.738;2022-09-06T04:51:28;7.40;;;4.68;;
47147;SDS011;32900;47.498;8.738;2022-09-06T04:53:56;10.45;;;4.45;;
47147;SDS011;32900;47.498;8.738;2022-09-06T04:56:24;7.57;;;4.85;;
47147;SDS011;32900;47.498;8.738;2022-09-06T04:58:52;9.05;;;4.47;;
47147;SDS011;32900;47.498;8.738;2022-09-06T05:01:20;8.00;;;4.95;;
47147;SDS011;32900;47.498;8.738;2022-09-06T05:03:47;10.35;;;5.03;;
47147;SDS011;32900;47.498;8.738;2022-09-06T05:08:45;7.72;;;5.00;;
47147;SDS011;32900;47.498;8.738;2022-09-06T05:11:13;6.97;;;4.78;;
47147;SDS011;32900;47.498;8.738;2022-09-06T05:13:39;8.90;;;5.63;;
47147;SDS011;32900;47.498;8.738;2022-09-06T05:16:07;9.57;;;5.63;;
47147;SDS011;32900;47.498;8.738;2022-09-06T05:18:34;8.80;;;5.00;;
47147;SDS011;32900;47.498;8.738;2022-09-06T05:21:02;8.40;;;5.38;;
47147;SDS011;32900;47.498;8.738;2022-09-06T05:23:29;8.65;;;5.28;;
47147;SDS011;32900;47.498;8.738;2022-09-06T05:25:55;9.10;;;5.65;;
47147;SDS011;32900;47.498;8.738;2022-09-06T05:28:22;9.70;;;5.10;;
47147;SDS011;32900;47.498;8.738;2022-09-06T05:30:49;10.40;;;5.50;;
47147;SDS011;32900;47.498;8.738;2022-09-06T05:33:20;8.60;;;5.10;;
47147;SDS011;32900;47.498;8.738;2022-09-06T05:35:47;7.53;;;4.97;;
47147;SDS011;32900;47.498;8.738;2022-09-06T05:38:14;9.55;;;6.40;;
47147;SDS011;32900;47.498;8.738;2022-09-06T05:40:41;8.40;;;5.47;;
47147;SDS011;32900;47.498;8.738;2022-09-06T05:43:08;7.50;;;5.60;;
47147;SDS011;32900;47.498;8.738;2022-09-06T05:45:35;8.55;;;5.53;;
47147;SDS011;32900;47.498;8.738;2022-09-06T05:48:02;10.27;;;5.85;;
47147;SDS011;32900;47.498;8.738;2022-09-06T05:50:29;9.88;;;5.32;;
47147;SDS011;32900;47.498;8.738;2022-09-06T05:52:56;10.50;;;5.20;;
47147;SDS011;32900;47.498;8.738;2022-09-06T05:55:23;9.32;;;5.53;;
47147;SDS011;32900;47.498;8.738;2022-09-06T05:57:50;8.60;;;5.18;;
47147;SDS011;32900;47.498;8.738;2022-09-06T06:00:17;10.48;;;5.00;;
47147;SDS011;32900;47.498;8.738;2022-09-06T06:02:45;10.90;;;5.45;;
47147;SDS011;32900;47.498;8.738;2022-09-06T06:05:14;9.05;;;5.15;;
47147;SDS011;32900;47.498;8.738;2022-09-06T06:07:41;9.60;;;5.90;;
47147;SDS011;32900;47.498;8.738;2022-09-06T06:10:08;10.10;;;6.15;;
47147;SDS011;32900;47.498;8.738;2022-09-06T06:12:35;10.25;;;6.22;;
47147;SDS011;32900;47.498;8.738;2022-09-06T06:15:02;11.38;;;6.05;;
47147;SDS011;32900;47.498;8.738;2022-09-06T06:17:30;8.45;;;5.75;;
47147;SDS011;32900;47.498;8.738;2022-09-06T06:19:57;8.52;;;5.60;;
47147;SDS011;32900;47.498;8.738;2022-09-06T06:22:25;12.27;;;6.50;;
47147;SDS011;32900;47.498;8.738;2022-09-06T06:24:52;11.45;;;6.47;;
47147;SDS011;32900;47.498;8.738;2022-09-06T06:27:19;11.90;;;6.90;;
47147;SDS011;32900;47.498;8.738;2022-09-06T06:29:45;11.60;;;6.70;;
47147;SDS011;32900;47.498;8.738;2022-09-06T06:32:12;10.68;;;6.10;;
47147;SDS011;32900;47.498;8.738;2022-09-06T06:34:39;11.50;;;6.57;;
47147;SDS011;32900;47.498;8.738;2022-09-06T06:37:06;11.05;;;6.07;;
47147;SDS011;32900;47.498;8.738;2022-09-06T06:39:33;10.85;;;6.15;;
47147;SDS011;32900;47.498;8.738;2022-09-06T06:42:00;9.48;;;6.20;;
47147;SDS011;32900;47.498;8.738;2022-09-06T06:44:26;10.73;;;6.13;;
47147;SDS011;32900;47.498;8.738;2022-09-06T06:46:53;10.02;;;5.60;;
47147;SDS011;32900;47.498;8.738;2022-09-06T06:49:23;8.95;;;5.07;;
47147;SDS011;32900;47.498;8.738;2022-09-06T06:51:50;10.13;;;5.30;;
47147;SDS011;32900;47.498;8.738;2022-09-06T06:54:17;10.38;;;5.78;;
47147;SDS011;32900;47.498;8.738;2022-09-06T06:56:44;8.98;;;5.22;;
47147;SDS011;32900;47.498;8.738;2022-09-06T06:59:11;14.35;;;5.30;;
47147;SDS011;32900;47.498;8.738;2022-09-06T07:01:38;10.25;;;5.00;;
47147;SDS011;32900;47.498;8.738;2022-09-06T07:04:05;11.43;;;5.25;;
47147;SDS011;32900;47.498;8.738;2022-09-06T07:06:49;8.55;;;5.10;;
47147;SDS011;32900;47.498;8.738;2022-09-06T07:09:38;11.32;;;5.43;;
47147;SDS011;32900;47.498;8.738;2022-09-06T07:12:25;14.13;;;5.60;;
47147;SDS011;32900;47.498;8.738;2022-09-06T07:14:52;13.45;;;5.30;;
47147;SDS011;32900;47.498;8.738;2022-09-06T07:17:18;10.25;;;4.85;;
47147;SDS011;32900;47.498;8.738;2022-09-06T07:19:48;11.60;;;5.28;;
47147;SDS011;32900;47.498;8.738;2022-09-06T07:22:35;12.82;;;5.45;;
47147;SDS011;32900;47.498;8.738;2022-09-06T07:25:03;10.27;;;5.65;;
47147;SDS011;32900;47.498;8.738;2022-09-06T07:27:30;9.48;;;5.30;;
47147;SDS011;32900;47.498;8.738;2022-09-06T07:30:14;11.20;;;5.07;;
47147;SDS011;32900;47.498;8.738;2022-09-06T07:32:41;10.55;;;5.28;;
47147;SDS011;32900;47.498;8.738;2022-09-06T07:35:08;8.52;;;5.22;;
47147;SDS011;32900;47.498;8.738;2022-09-06T07:37:37;11.35;;;5.45;;
47147;SDS011;32900;47.498;8.738;2022-09-06T07:40:04;15.38;;;6.35;;
47147;SDS011;32900;47.498;8.738;2022-09-06T07:42:33;13.73;;;6.93;;
47147;SDS011;32900;47.498;8.738;2022-09-06T07:45:03;9.63;;;5.32;;
47147;SDS011;32900;47.498;8.738;2022-09-06T07:47:30;8.98;;;5.53;;
47147;SDS011;32900;47.498;8.738;2022-09-06T07:50:17;9.98;;;5.50;;
47147;SDS011;32900;47.498;8.738;2022-09-06T07:53:05;11.80;;;5.38;;
47147;SDS011;32900;47.498;8.738;2022-09-06T07:55:39;10.13;;;5.72;;
47147;SDS011;32900;47.498;8.738;2022-09-06T07:58:06;9.25;;;4.63;;
47147;SDS011;32900;47.498;8.738;2022-09-06T08:00:33;12.02;;;4.60;;
47147;SDS011;32900;47.498;8.738;2022-09-06T08:03:01;8.95;;;4.20;;
47147;SDS011;32900;47.498;8.738;2022-09-06T08:05:29;9.68;;;4.60;;
47147;SDS011;32900;47.498;8.738;2022-09-06T08:08:16;8.52;;;4.20;;
47147;SDS011;32900;47.498;8.738;2022-09-06T08:11:03;9.57;;;4.43;;
47147;SDS011;32900;47.498;8.738;2022-09-06T08:13:33;10.45;;;4.90;;
47147;SDS011;32900;47.498;8.738;2022-09-06T08:16:01;9.85;;;4.88;;
47147;SDS011;32900;47.498;8.738;2022-09-06T08:18:30;10.93;;;5.47;;
47147;SDS011;32900;47.498;8.738;2022-09-06T08:23:38;12.07;;;5.07;;
47147;SDS011;32900;47.498;8.738;2022-09-06T08:26:09;9.57;;;5.00;;
47147;SDS011;32900;47.498;8.738;2022-09-06T08:28:37;16.10;;;5.47;;
47147;SDS011;32900;47.498;8.738;2022-09-06T08:31:05;13.23;;;5.47;;
47147;SDS011;32900;47.498;8.738;2022-09-06T08:33:33;11.65;;;6.13;;
47147;SDS011;32900;47.498;8.738;2022-09-06T08:36:00;11.93;;;5.53;;
47147;SDS011;32900;47.498;8.738;2022-09-06T08:38:28;10.13;;;5.45;;
47147;SDS011;32900;47.498;8.738;2022-09-06T08:44:26;8.65;;;4.72;;
47147;SDS011;32900;47.498;8.738;2022-09-06T08:54:36;8.93;;;4.95;;
47147;SDS011;32900;47.498;8.738;2022-09-06T08:57:14;13.65;;;5.45;;
47147;SDS011;32900;47.498;8.738;2022-09-06T08:59:55;13.10;;;6.15;;
47147;SDS011;32900;47.498;8.738;2022-09-06T09:02:27;13.27;;;5.30;;
47147;SDS011;32900;47.498;8.738;2022-09-06T09:05:06;13.48;;;5.78;;
47147;SDS011;32900;47.498;8.738;2022-09-06T09:10:33;18.08;;;6.68;;
47147;SDS011;32900;47.498;8.738;2022-09-06T09:13:20;14.82;;;6.10;;
47147;SDS011;32900;47.498;8.738;2022-09-06T09:15:50;12.88;;;6.60;;
47147;SDS011;32900;47.498;8.738;2022-09-06T09:18:20;9.65;;;5.22;;
47147;SDS011;32900;47.498;8.738;2022-09-06T09:21:10;13.85;;;5.05;;
47147;SDS011;32900;47.498;8.738;2022-09-06T09:23:37;8.60;;;4.85;;
47147;SDS011;32900;47.498;8.738;2022-09-06T09:26:06;12.73;;;5.88;;
47147;SDS011;32900;47.498;8.738;2022-09-06T09:29:00;9.15;;;5.43;;
47147;SDS011;32900;47.498;8.738;2022-09-06T09:31:37;8.10;;;5.00;;
47147;SDS011;32900;47.498;8.738;2022-09-06T09:34:04;12.70;;;5.78;;
47147;SDS011;32900;47.498;8.738;2022-09-06T09:36:37;7.43;;;4.68;;
47147;SDS011;32900;47.498;8.738;2022-09-06T09:39:10;12.60;;;6.22;;
47147;SDS011;32900;47.498;8.738;2022-09-06T09:41:38;8.48;;;5.57;;
47147;SDS011;32900;47.498;8.738;2022-09-06T09:44:09;9.75;;;5.50;;
47147;SDS011;32900;47.498;8.738;2022-09-06T09:46:41;10.93;;;5.25;;
47147;SDS011;32900;47.498;8.738;2022-09-06T09:54:52;12.35;;;5.30;;
47147;SDS011;32900;47.498;8.738;2022-09-06T09:57:23;10.15;;;5.30;;
47147;SDS011;32900;47.498;8.738;2022-09-06T09:59:54;9.88;;;4.20;;
47147;SDS011;32900;47.498;8.738;2022-09-06T10:02:24;7.38;;;4.70;;
47147;SDS011;32900;47.498;8.738;2022-09-06T10:07:44;7.90;;;4.93;;
47147;SDS011;32900;47.498;8.738;2022-09-06T10:10:45;7.68;;;4.72;;
47147;SDS011;32900;47.498;8.738;2022-09-06T10:13:17;9.38;;;5.68;;
47147;SDS011;32900;47.498;8.738;2022-09-06T10:15:48;12.60;;;5.00;;
47147;SDS011;32900;47.498;8.738;2022-09-06T10:18:20;9.50;;;4.55;;
47147;SDS011;32900;47.498;8.738;2022-09-06T10:21:06;9.10;;;4.78;;
47147;SDS011;32900;47.498;8.738;2022-09-06T10:24:00;9.77;;;5.18;;
47147;SDS011;32900;47.498;8.738;2022-09-06T10:26:51;10.15;;;4.88;;
47147;SDS011;32900;47.498;8.738;2022-09-06T10:29:28;12.73;;;5.75;;
47147;SDS011;32900;47.498;8.738;2022-09-06T10:35:19;10.93;;;5.70;;
47147;SDS011;32900;47.498;8.738;2022-09-06T10:43:29;10.35;;;4.97;;
47147;SDS011;32900;47.498;8.738;2022-09-06T10:46:13;8.98;;;5.03;;
47147;SDS011;32900;47.498;8.738;2022-09-06T10:48:43;9.27;;;5.15;;
47147;SDS011;32900;47.498;8.738;2022-09-06T10:54:07;6.97;;;4.80;;
47147;SDS011;32900;47.498;8.738;2022-09-06T10:59:43;10.27;;;4.97;;
47147;SDS011;32900;47.498;8.738;2022-09-06T11:05:16;9.55;;;4.28;;
47147;SDS011;32900;47.498;8.738;2022-09-06T11:08:07;10.60;;;4.60;;
47147;SDS011;32900;47.498;8.738;2022-09-06T11:11:22;11.35;;;5.18;;
47147;SDS011;32900;47.498;8.738;2022-09-06T11:14:05;10.98;;;5.13;;
47147;SDS011;32900;47.498;8.738;2022-09-06T11:19:36;8.23;;;4.65;;
47147;SDS011;32900;47.498;8.738;2022-09-06T11:25:17;10.63;;;4.75;;
47147;SDS011;32900;47.498;8.738;2022-09-06T11:27:55;11.15;;;5.03;;
47147;SDS011;32900;47.498;8.738;2022-09-06T11:30:24;11.52;;;5.40;;
47147;SDS011;32900;47.498;8.738;2022-09-06T11:35:43;9.00;;;4.40;;
47147;SDS011;32900;47.498;8.738;2022-09-06T11:43:44;9.40;;;5.10;;
47147;SDS011;32900;47.498;8.738;2022-09-06T11:51:54;10.93;;;4.70;;
47147;SDS011;32900;47.498;8.738;2022-09-06T11:54:25;8.77;;;4.90;;
47147;SDS011;32900;47.498;8.738;2022-09-06T12:02:27;8.60;;;4.25;;
47147;SDS011;32900;47.498;8.738;2022-09-06T12:05:09;12.15;;;5.07;;
47147;SDS011;32900;47.498;8.738;2022-09-06T12:07:37;10.73;;;4.57;;
47147;SDS011;32900;47.498;8.738;2022-09-06T12:10:58;10.20;;;4.80;;
47147;SDS011;32900;47.498;8.738;2022-09-06T12:13:32;9.02;;;4.93;;
47147;SDS011;32900;47.498;8.738;2022-09-06T12:16:09;10.50;;;5.00;;
47147;SDS011;32900;47.498;8.738;2022-09-06T12:23:59;12.10;;;4.85;;
47147;SDS011;32900;47.498;8.738;2022-09-06T12:26:46;11.93;;;4.53;;
47147;SDS011;32900;47.498;8.738;2022-09-06T12:29:22;13.70;;;4.88;;
47147;SDS011;32900;47.498;8.738;2022-09-06T12:31:56;11.68;;;5.05;;
47147;SDS011;32900;47.498;8.738;2022-09-06T12:34:24;10.95;;;5.47;;
47147;SDS011;32900;47.498;8.738;2022-09-06T12:37:00;12.52;;;4.32;;
47147;SDS011;32900;47.498;8.738;2022-09-06T12:39:32;8.95;;;4.22;;
47147;SDS011;32900;47.498;8.738;2022-09-06T12:42:04;10.40;;;3.38;;
47147;SDS011;32900;47.498;8.738;2022-09-06T12:44:37;9.73;;;4.50;;
47147;SDS011;32900;47.498;8.738;2022-09-06T12:47:53;9.80;;;3.70;;
47147;SDS011;32900;47.498;8.738;2022-09-06T12:52:57;7.43;;;3.90;;
47147;SDS011;32900;47.498;8.738;2022-09-06T12:55:27;9.00;;;3.83;;
47147;SDS011;32900;47.498;8.738;2022-09-06T12:58:02;11.35;;;3.67;;
47147;SDS011;32900;47.498;8.738;2022-09-06T13:00:38;9.75;;;3.83;;
47147;SDS011;32900;47.498;8.738;2022-09-06T13:03:23;12.35;;;4.25;;
47147;SDS011;32900;47.498;8.738;2022-09-06T13:05:55;7.05;;;3.22;;
47147;SDS011;32900;47.498;8.738;2022-09-06T13:11:03;8.32;;;2.95;;
47147;SDS011;32900;47.498;8.738;2022-09-06T13:13:49;8.52;;;2.80;;
47147;SDS011;32900;47.498;8.738;2022-09-06T13:16:25;5.93;;;2.58;;
47147;SDS011;32900;47.498;8.738;2022-09-06T13:21:40;8.32;;;2.47;;
47147;SDS011;32900;47.498;8.738;2022-09-06T13:27:21;5.20;;;2.65;;
47147;SDS011;32900;47.498;8.738;2022-09-06T13:29:56;5.95;;;2.33;;
47147;SDS011;32900;47.498;8.738;2022-09-06T13:32:28;6.97;;;2.65;;
47147;SDS011;32900;47.498;8.738;2022-09-06T13:34:56;6.35;;;2.90;;
47147;SDS011;32900;47.498;8.738;2022-09-06T13:37:26;8.57;;;2.97;;
47147;SDS011;32900;47.498;8.738;2022-09-06T13:42:28;5.72;;;2.15;;
47147;SDS011;32900;47.498;8.738;2022-09-06T13:47:55;7.72;;;2.40;;
47147;SDS011;32900;47.498;8.738;2022-09-06T13:50:42;5.68;;;2.10;;
47147;SDS011;32900;47.498;8.738;2022-09-06T13:53:09;5.68;;;2.08;;
47147;SDS011;32900;47.498;8.738;2022-09-06T13:55:36;9.85;;;2.22;;
47147;SDS011;32900;47.498;8.738;2022-09-06T13:58:03;5.45;;;1.98;;
47147;SDS011;32900;47.498;8.738;2022-09-06T14:00:30;6.03;;;1.90;;
47147;SDS011;32900;47.498;8.738;2022-09-06T14:02:57;4.93;;;1.95;;
47147;SDS011;32900;47.498;8.738;2022-09-06T14:05:24;4.38;;;2.05;;
47147;SDS011;32900;47.498;8.738;2022-09-06T14:07:50;8.45;;;2.15;;
47147;SDS011;32900;47.498;8.738;2022-09-06T14:10:17;8.30;;;2.00;;
47147;SDS011;32900;47.498;8.738;2022-09-06T14:12:46;5.43;;;1.90;;
47147;SDS011;32900;47.498;8.738;2022-09-06T14:15:13;6.90;;;1.88;;
47147;SDS011;32900;47.498;8.738;2022-09-06T14:17:40;5.07;;;1.80;;
47147;SDS011;32900;47.498;8.738;2022-09-06T14:20:07;4.97;;;1.63;;
47147;SDS011;32900;47.498;8.738;2022-09-06T14:22:35;6.43;;;1.95;;
47147;SDS011;32900;47.498;8.738;2022-09-06T14:25:02;5.57;;;2.17;;
47147;SDS011;32900;47.498;8.738;2022-09-06T14:27:30;4.38;;;1.90;;
47147;SDS011;32900;47.498;8.738;2022-09-06T14:29:58;3.80;;;1.70;;
47147;SDS011;32900;47.498;8.738;2022-09-06T14:32:25;4.93;;;1.88;;
47147;SDS011;32900;47.498;8.738;2022-09-06T14:34:52;4.97;;;1.80;;
47147;SDS011;32900;47.498;8.738;2022-09-06T14:37:19;4.30;;;1.77;;
47147;SDS011;32900;47.498;8.738;2022-09-06T14:39:47;6.47;;;2.25;;
47147;SDS011;32900;47.498;8.738;2022-09-06T14:42:14;7.20;;;1.95;;
47147;SDS011;32900;47.498;8.738;2022-09-06T14:44:41;5.20;;;1.40;;
47147;SDS011;32900;47.498;8.738;2022-09-06T14:47:08;5.35;;;1.80;;
47147;SDS011;32900;47.498;8.738;2022-09-06T14:49:35;5.95;;;1.60;;
47147;SDS011;32900;47.498;8.738;2022-09-06T14:52:01;5.38;;;1.90;;
47147;SDS011;32900;47.498;8.738;2022-09-06T14:54:28;6.22;;;1.80;;
47147;SDS011;32900;47.498;8.738;2022-09-06T14:56:55;5.03;;;1.83;;
47147;SDS011;32900;47.498;8.738;2022-09-06T14:59:25;5.65;;;2.17;;
47147;SDS011;32900;47.498;8.738;2022-09-06T15:01:52;5.63;;;1.83;;
47147;SDS011;32900;47.498;8.738;2022-09-06T15:04:21;5.85;;;1.80;;
47147;SDS011;32900;47.498;8.738;2022-09-06T15:06:48;4.35;;;1.85;;
47147;SDS011;32900;47.498;8.738;2022-09-06T15:09:16;7.78;;;1.90;;
47147;SDS011;32900;47.498;8.738;2022-09-06T15:11:44;7.28;;;2.10;;
47147;SDS011;32900;47.498;8.738;2022-09-06T15:14:14;5.65;;;1.92;;
47147;SDS011;32900;47.498;8.738;2022-09-06T15:16:52;4.90;;;1.60;;
47147;SDS011;32900;47.498;8.738;2022-09-06T15:19:22;4.18;;;1.60;;
47147;SDS011;32900;47.498;8.738;2022-09-06T15:21:50;5.95;;;1.85;;
47147;SDS011;32900;47.498;8.738;2022-09-06T15:24:17;6.88;;;2.28;;
47147;SDS011;32900;47.498;8.738;2022-09-06T15:26:44;6.50;;;2.17;;
47147;SDS011;32900;47.498;8.738;2022-09-06T15:29:12;5.30;;;1.85;;
47147;SDS011;32900;47.498;8.738;2022-09-06T15:31:40;5.45;;;1.90;;
47147;SDS011;32900;47.498;8.738;2022-09-06T15:34:08;7.30;;;2.00;;
47147;SDS011;32900;47.498;8.738;2022-09-06T15:36:35;4.55;;;1.83;;
47147;SDS011;32900;47.498;8.738;2022-09-06T15:39:03;3.90;;;2.00;;
47147;SDS011;32900;47.498;8.738;2022-09-06T15:41:32;6.25;;;1.98;;
47147;SDS011;32900;47.498;8.738;2022-09-06T15:44:04;5.70;;;2.28;;
47147;SDS011;32900;47.498;8.738;2022-09-06T15:49:00;6.75;;;2.00;;
47147;SDS011;32900;47.498;8.738;2022-09-06T15:51:29;6.22;;;2.05;;
47147;SDS011;32900;47.498;8.738;2022-09-06T15:53:57;5.85;;;2.35;;
47147;SDS011;32900;47.498;8.738;2022-09-06T15:56:24;7.90;;;2.50;;
47147;SDS011;32900;47.498;8.738;2022-09-06T15:58:51;8.38;;;2.20;;
47147;SDS011;32900;47.498;8.738;2022-09-06T16:01:19;6.35;;;1.85;;
47147;SDS011;32900;47.498;8.738;2022-09-06T16:03:54;5.90;;;2.05;;
47147;SDS011;32900;47.498;8.738;2022-09-06T16:06:30;7.03;;;2.63;;
47147;SDS011;32900;47.498;8.738;2022-09-06T16:09:06;8.73;;;2.28;;
47147;SDS011;32900;47.498;8.738;2022-09-06T16:11:35;6.43;;;2.28;;
47147;SDS011;32900;47.498;8.738;2022-09-06T16:14:03;5.97;;;2.13;;
47147;SDS011;32900;47.498;8.738;2022-09-06T16:16:31;4.75;;;2.40;;
47147;SDS011;32900;47.498;8.738;2022-09-06T16:19:00;5.90;;;2.50;;
47147;SDS011;32900;47.498;8.738;2022-09-06T16:21:28;6.53;;;2.78;;
47147;SDS011;32900;47.498;8.738;2022-09-06T16:23:58;6.05;;;2.40;;
47147;SDS011;32900;47.498;8.738;2022-09-06T16:26:32;6.50;;;2.60;;
47147;SDS011;32900;47.498;8.738;2022-09-06T16:29:00;4.93;;;2.70;;
47147;SDS011;32900;47.498;8.738;2022-09-06T16:31:28;5.45;;;2.25;;
47147;SDS011;32900;47.498;8.738;2022-09-06T16:33:55;6.13;;;2.17;;
47147;SDS011;32900;47.498;8.738;2022-09-06T16:36:23;5.18;;;2.50;;
47147;SDS011;32900;47.498;8.738;2022-09-06T16:38:51;7.57;;;2.50;;
47147;SDS011;32900;47.498;8.738;2022-09-06T16:43:50;5.47;;;2.22;;
47147;SDS011;32900;47.498;8.738;2022-09-06T16:46:21;6.97;;;3.28;;
47147;SDS011;32900;47.498;8.738;2022-09-06T16:51:18;7.80;;;2.72;;
47147;SDS011;32900;47.498;8.738;2022-09-06T16:53:47;6.20;;;2.60;;
47147;SDS011;32900;47.498;8.738;2022-09-06T16:56:16;8.38;;;2.15;;
47147;SDS011;32900;47.498;8.738;2022-09-06T16:58:51;6.55;;;2.13;;
47147;SDS011;32900;47.498;8.738;2022-09-06T17:01:20;6.95;;;2.40;;
47147;SDS011;32900;47.498;8.738;2022-09-06T17:03:48;8.10;;;2.30;;
47147;SDS011;32900;47.498;8.738;2022-09-06T17:06:15;7.15;;;2.35;;
47147;SDS011;32900;47.498;8.738;2022-09-06T17:08:43;5.90;;;2.45;;
47147;SDS011;32900;47.498;8.738;2022-09-06T17:11:15;7.55;;;2.40;;
47147;SDS011;32900;47.498;8.738;2022-09-06T17:13:47;6.45;;;2.83;;
47147;SDS011;32900;47.498;8.738;2022-09-06T17:16:16;5.75;;;2.38;;
47147;SDS011;32900;47.498;8.738;2022-09-06T17:19:02;7.40;;;2.55;;
47147;SDS011;32900;47.498;8.738;2022-09-06T17:21:30;8.18;;;2.78;;
47147;SDS011;32900;47.498;8.738;2022-09-06T17:23:57;7.05;;;2.53;;
47147;SDS011;32900;47.498;8.738;2022-09-06T17:26:28;8.10;;;2.78;;
47147;SDS011;32900;47.498;8.738;2022-09-06T17:28:56;5.40;;;2.40;;
47147;SDS011;32900;47.498;8.738;2022-09-06T17:31:23;6.95;;;2.42;;
47147;SDS011;32900;47.498;8.738;2022-09-06T17:33:51;8.93;;;3.60;;
47147;SDS011;32900;47.498;8.738;2022-09-06T17:36:26;6.28;;;2.80;;
47147;SDS011;32900;47.498;8.738;2022-09-06T17:39:09;7.40;;;3.45;;
47147;SDS011;32900;47.498;8.738;2022-09-06T17:41:39;9.38;;;3.63;;
47147;SDS011;32900;47.498;8.738;2022-09-06T17:44:08;6.78;;;3.42;;
47147;SDS011;32900;47.498;8.738;2022-09-06T17:46:36;6.05;;;3.22;;
47147;SDS011;32900;47.498;8.738;2022-09-06T17:49:22;7.65;;;4.28;;
47147;SDS011;32900;47.498;8.738;2022-09-06T17:51:49;9.73;;;4.05;;
47147;SDS011;32900;47.498;8.738;2022-09-06T17:54:17;9.05;;;3.75;;